createdAt,value
2022-11-20T00:01:25.996Z,0.90
2022-11-20T00:03:55.713Z,0.80
2022-11-20T00:06:27.097Z,0.70
2022-11-20T00:09:00.914Z,2.40
2022-11-20T00:11:33.525Z,0.60
2022-11-20T00:14:03.061Z,0.60
2022-11-20T00:16:33.670Z,0.50
2022-11-20T00:19:00.570Z,0.50
2022-11-20T00:21:30.130Z,0.40
2022-11-20T00:23:58.350Z,0.40
2022-11-20T00:26:27.652Z,0.40
2022-11-20T00:28:58.025Z,0.40
2022-11-20T00:31:25.622Z,0.30
2022-11-20T00:33:53.025Z,0.30
2022-11-20T00:36:26.814Z,0.30
2022-11-20T00:38:56.658Z,0.30
2022-11-20T00:41:25.557Z,0.30
2022-11-20T00:43:54.888Z,0.20
2022-11-20T00:46:25.447Z,0.20
2022-11-20T00:48:52.458Z,0.20
2022-11-20T00:51:23.137Z,0.10
2022-11-20T00:53:50.903Z,0.30
2022-11-20T00:56:20.185Z,0.10
2022-11-20T00:58:49.467Z,0.10
2022-11-20T01:01:25.757Z,0.10
2022-11-20T01:03:57.167Z,0.00
2022-11-20T01:06:34.887Z,0.00
2022-11-20T01:09:07.313Z,0.00
2022-11-20T01:11:38.913Z,0.00
2022-11-20T01:14:10.922Z,-0.10
2022-11-20T01:16:42.307Z,-0.10
2022-11-20T01:19:17.722Z,-0.10
2022-11-20T01:21:48.691Z,-0.10
2022-11-20T01:24:18.284Z,-0.10
2022-11-20T01:26:48.150Z,-0.10
2022-11-20T01:29:24.936Z,-0.10
2022-11-20T01:31:53.413Z,-0.10
2022-11-20T01:34:22.958Z,-0.10
2022-11-20T01:36:51.204Z,0.00
2022-11-20T01:39:24.603Z,0.00
2022-11-20T01:42:13.518Z,0.00
2022-11-20T01:44:54.890Z,0.10
2022-11-20T01:47:30.387Z,0.10
2022-11-20T01:50:15.404Z,0.20
2022-11-20T01:52:51.261Z,0.30
2022-11-20T01:55:29.633Z,0.40
2022-11-20T01:57:57.306Z,0.40
2022-11-20T02:00:24.054Z,0.50
2022-11-20T02:03:04.516Z,0.60
2022-11-20T02:05:50.341Z,0.70
2022-11-20T02:08:19.198Z,0.80
2022-11-20T02:10:46.020Z,0.90
2022-11-20T02:13:31.719Z,1.00
2022-11-20T02:15:58.903Z,1.10
2022-11-20T02:18:25.816Z,1.10
2022-11-20T02:21:07.509Z,1.20
2022-11-20T02:23:59.540Z,1.20
2022-11-20T02:26:29.662Z,1.30
2022-11-20T02:28:57.384Z,1.30
2022-11-20T02:31:24.174Z,1.30
2022-11-20T02:33:57.861Z,1.30
2022-11-20T02:36:28.604Z,1.40
2022-11-20T02:38:55.743Z,1.40
2022-11-20T02:41:23.081Z,1.50
2022-11-20T02:43:50.008Z,1.50
2022-11-20T02:46:16.765Z,1.50
2022-11-20T02:48:43.712Z,1.60
2022-11-20T02:51:11.604Z,1.60
2022-11-20T02:53:38.439Z,1.60
2022-11-20T02:56:05.901Z,1.70
2022-11-20T02:58:33.158Z,1.70
2022-11-20T03:01:00.054Z,1.70
2022-11-20T03:03:26.886Z,1.70
2022-11-20T03:05:53.845Z,1.80
2022-11-20T03:08:20.750Z,1.80
2022-11-20T03:10:47.644Z,1.80
2022-11-20T03:13:14.601Z,1.80
2022-11-20T03:15:41.569Z,1.90
2022-11-20T03:18:08.415Z,1.90
2022-11-20T03:20:35.472Z,1.90
2022-11-20T03:23:02.619Z,2.00
2022-11-20T03:25:29.474Z,2.00
2022-11-20T03:27:57.272Z,2.00
2022-11-20T03:30:29.218Z,2.10
2022-11-20T03:32:57.639Z,2.10
2022-11-20T03:35:24.412Z,2.10
2022-11-20T03:37:51.295Z,2.10
2022-11-20T03:40:18.312Z,2.10
2022-11-20T03:42:47.725Z,2.20
2022-11-20T03:45:19.680Z,2.20
2022-11-20T03:47:46.961Z,3.00
2022-11-20T03:50:14.908Z,2.20
2022-11-20T03:52:42.560Z,2.20
2022-11-20T03:55:09.641Z,2.50
2022-11-20T03:57:36.488Z,2.20
2022-11-20T04:00:05.492Z,2.20
2022-11-20T04:02:32.459Z,2.20
2022-11-20T04:04:59.428Z,2.20
2022-11-20T04:07:26.308Z,2.20
2022-11-20T04:09:53.178Z,2.20
2022-11-20T04:12:20.071Z,2.20
2022-11-20T04:14:46.895Z,2.20
2022-11-20T04:17:13.675Z,2.20
2022-11-20T04:19:40.509Z,2.20
2022-11-20T04:22:07.340Z,2.10
2022-11-20T04:24:34.169Z,2.10
2022-11-20T04:27:01.093Z,3.20
2022-11-20T04:29:27.888Z,2.10
2022-11-20T04:31:54.691Z,2.20
2022-11-20T04:34:21.510Z,2.20
2022-11-20T04:36:48.470Z,2.20
2022-11-20T04:39:16.429Z,2.20
2022-11-20T04:41:43.732Z,2.30
2022-11-20T04:44:10.973Z,2.30
2022-11-20T04:46:43.282Z,2.30
2022-11-20T04:49:12.351Z,2.30
2022-11-20T04:51:39.189Z,2.40
2022-11-20T04:54:06.903Z,2.40
2022-11-20T04:56:33.749Z,2.40
2022-11-20T04:59:03.840Z,2.40
2022-11-20T05:01:31.347Z,2.50
2022-11-20T05:03:58.228Z,2.50
2022-11-20T05:06:25.092Z,2.50
2022-11-20T05:08:51.919Z,2.50
2022-11-20T05:11:21.966Z,2.50
2022-11-20T05:13:51.199Z,2.50
2022-11-20T05:16:22.631Z,2.60
2022-11-20T05:18:51.373Z,2.60
2022-11-20T05:21:19.243Z,2.60
2022-11-20T05:23:46.835Z,2.60
2022-11-20T05:26:22.472Z,2.60
2022-11-20T05:28:50.914Z,2.70
2022-11-20T05:31:27.604Z,2.60
2022-11-20T05:33:57.722Z,2.60
2022-11-20T05:36:25.493Z,2.60
2022-11-20T05:38:55.444Z,2.60
2022-11-20T05:41:26.054Z,2.60
2022-11-20T05:43:52.929Z,2.60
2022-11-20T05:46:27.800Z,2.70
2022-11-20T05:48:57.166Z,2.70
2022-11-20T05:51:25.524Z,2.70
2022-11-20T05:53:52.467Z,2.70
2022-11-20T05:56:22.059Z,2.80
2022-11-20T05:58:50.127Z,2.80
2022-11-20T06:01:27.281Z,2.80
2022-11-20T06:03:55.040Z,2.90
2022-11-20T06:06:22.376Z,2.90
2022-11-20T06:08:49.761Z,2.90
2022-11-20T06:11:17.945Z,2.90
2022-11-20T06:13:46.386Z,3.00
2022-11-20T06:16:16.963Z,3.00
2022-11-20T06:18:43.869Z,3.00
2022-11-20T06:21:14.436Z,3.10
2022-11-20T06:23:42.568Z,3.10
2022-11-20T06:26:24.088Z,3.10
2022-11-20T06:28:52.259Z,3.20
2022-11-20T06:31:23.578Z,3.20
2022-11-20T06:33:51.306Z,3.30
2022-11-20T06:36:21.650Z,3.30
2022-11-20T06:38:49.140Z,3.30
2022-11-20T06:41:20.140Z,3.30
2022-11-20T06:43:47.666Z,3.40
2022-11-20T06:46:20.000Z,3.40
2022-11-20T06:48:48.785Z,3.40
2022-11-20T06:51:16.160Z,3.40
2022-11-20T06:53:42.988Z,3.50
2022-11-20T06:56:10.177Z,3.50
2022-11-20T06:58:37.650Z,3.50
2022-11-20T07:01:11.026Z,3.60
2022-11-20T07:03:38.779Z,3.60
2022-11-20T07:06:07.022Z,3.60
2022-11-20T07:08:35.871Z,3.70
2022-11-20T07:11:06.446Z,3.70
2022-11-20T07:13:34.375Z,3.70
2022-11-20T07:16:04.498Z,3.70
2022-11-20T07:18:31.554Z,3.80
2022-11-20T07:21:03.866Z,3.80
2022-11-20T07:23:30.941Z,3.80
2022-11-20T07:25:57.881Z,3.80
2022-11-20T07:28:24.819Z,3.90
2022-11-20T07:30:53.930Z,3.90
2022-11-20T07:33:21.908Z,3.90
2022-11-20T07:35:51.330Z,3.90
2022-11-20T07:38:18.285Z,4.00
2022-11-20T07:40:45.102Z,4.00
2022-11-20T07:43:12.041Z,4.00
2022-11-20T07:45:39.004Z,3.90
2022-11-20T07:48:05.959Z,4.00
2022-11-20T07:50:32.772Z,4.00
2022-11-20T07:53:05.506Z,4.00
2022-11-20T07:55:33.628Z,4.00
2022-11-20T07:58:00.588Z,4.00
2022-11-20T08:00:28.381Z,4.10
2022-11-20T08:02:55.463Z,4.10
2022-11-20T08:05:22.305Z,4.20
2022-11-20T08:07:49.540Z,4.20
2022-11-20T08:10:17.178Z,4.30
2022-11-20T08:13:08.442Z,5.40
2022-11-20T08:15:37.856Z,4.40
2022-11-20T08:21:04.452Z,4.50
2022-11-20T08:23:31.284Z,4.60
2022-11-20T08:25:58.354Z,4.60
2022-11-20T08:28:25.195Z,4.70
2022-11-20T08:30:52.024Z,4.70
2022-11-20T08:33:19.219Z,4.80
2022-11-20T08:35:46.412Z,4.80
2022-11-20T08:38:13.329Z,4.80
2022-11-20T08:40:40.098Z,4.90
2022-11-20T08:43:06.975Z,4.90
2022-11-20T08:45:35.287Z,5.00
2022-11-20T08:48:05.835Z,5.00
2022-11-20T08:50:33.948Z,5.00
2022-11-20T08:53:07.729Z,5.00
2022-11-20T08:55:36.437Z,5.10
2022-11-20T08:58:07.445Z,5.20
2022-11-20T09:00:35.139Z,5.20
2022-11-20T09:03:02.832Z,5.20
2022-11-20T09:05:30.136Z,5.30
2022-11-20T09:08:00.663Z,5.30
2022-11-20T09:10:28.806Z,5.40
2022-11-20T09:12:56.695Z,5.50
2022-11-20T09:15:25.433Z,5.50
2022-11-20T09:17:59.349Z,5.60
2022-11-20T09:20:29.876Z,5.60
2022-11-20T09:22:58.099Z,5.70
2022-11-20T09:25:24.947Z,5.70
2022-11-20T09:27:59.667Z,5.70
2022-11-20T09:30:27.635Z,5.80
2022-11-20T09:32:54.501Z,5.80
2022-11-20T09:35:21.324Z,5.90
2022-11-20T09:37:49.175Z,5.90
2022-11-20T09:40:27.284Z,6.00
2022-11-20T09:43:35.255Z,6.10
2022-11-20T09:46:23.419Z,6.10
2022-11-20T09:49:32.137Z,6.20
2022-11-20T09:52:48.997Z,7.10
2022-11-20T09:55:17.562Z,6.40
2022-11-20T09:57:49.087Z,6.40
2022-11-20T10:00:18.355Z,7.00
2022-11-20T10:03:04.340Z,6.50
2022-11-20T10:05:46.103Z,6.60
2022-11-20T10:08:45.457Z,6.60
2022-11-20T10:11:43.711Z,6.70
2022-11-20T10:14:27.957Z,6.80
2022-11-20T10:17:04.824Z,8.20
2022-11-20T10:20:16.808Z,6.90
2022-11-20T10:23:28.409Z,7.00
2022-11-20T10:26:22.598Z,7.10
2022-11-20T10:29:04.682Z,7.30
2022-11-20T10:31:38.590Z,7.50
2022-11-20T10:34:32.929Z,7.60
2022-11-20T10:37:16.574Z,7.80
2022-11-20T10:40:01.192Z,7.90
2022-11-20T10:42:38.748Z,8.00
2022-11-20T10:45:43.245Z,8.10
2022-11-20T10:48:22.141Z,8.20
2022-11-20T10:51:16.421Z,8.20
2022-11-20T10:53:59.583Z,8.30
2022-11-20T10:56:50.087Z,8.30
2022-11-20T10:59:28.670Z,8.30
2022-11-20T11:01:55.595Z,8.30
2022-11-20T11:04:43.852Z,8.30
2022-11-20T11:07:31.703Z,8.30
2022-11-20T11:09:58.601Z,8.30
2022-11-20T11:12:29.330Z,8.40
2022-11-20T11:14:58.642Z,8.40
2022-11-20T11:17:35.389Z,8.40
2022-11-20T11:20:18.665Z,8.40
2022-11-20T11:22:56.007Z,8.40
2022-11-20T11:25:27.577Z,8.40
2022-11-20T11:28:23.359Z,8.30
2022-11-20T11:30:50.364Z,8.30
2022-11-20T11:33:24.937Z,8.30
2022-11-20T11:36:18.836Z,8.20
2022-11-20T11:38:45.809Z,8.20
2022-11-20T11:41:24.838Z,8.20
2022-11-20T11:44:32.108Z,8.20
2022-11-20T11:46:59.913Z,8.10
2022-11-20T11:49:26.726Z,8.10
2022-11-20T11:52:03.113Z,7.20
2022-11-20T11:54:56.583Z,8.10
2022-11-20T11:57:39.875Z,8.10
2022-11-20T12:00:12.100Z,8.10
2022-11-20T12:02:50.484Z,8.20
2022-11-20T12:05:44.178Z,8.20
2022-11-20T12:08:27.549Z,8.20
2022-11-20T12:11:11.571Z,8.30
2022-11-20T12:14:24.847Z,8.30
2022-11-20T12:16:53.701Z,8.30
2022-11-20T12:19:21.177Z,8.30
2022-11-20T12:22:07.380Z,8.40
2022-11-20T12:24:59.785Z,8.40
2022-11-20T12:27:47.718Z,8.50
2022-11-20T12:30:18.294Z,8.50
2022-11-20T12:33:28.242Z,8.50
2022-11-20T12:36:18.700Z,8.60
2022-11-20T12:39:13.132Z,8.70
2022-11-20T12:42:38.675Z,8.70
2022-11-20T12:45:53.022Z,8.80
2022-11-20T12:48:41.057Z,8.90
2022-11-20T12:51:29.795Z,8.90
2022-11-20T12:54:43.238Z,10.60
2022-11-20T12:58:25.856Z,9.00
2022-11-20T13:01:43.392Z,9.10
2022-11-20T13:04:42.517Z,9.10
2022-11-20T13:07:15.519Z,9.20
2022-11-20T13:09:50.505Z,9.30
2022-11-20T13:12:41.480Z,9.30
2022-11-20T13:15:35.598Z,9.40
2022-11-20T13:18:09.297Z,9.40
2022-11-20T13:20:37.223Z,9.50
2022-11-20T13:23:04.030Z,9.50
2022-11-20T13:25:37.220Z,11.40
2022-11-20T13:28:29.516Z,9.50
2022-11-20T13:30:58.703Z,11.10
2022-11-20T13:33:39.013Z,11.30
2022-11-20T13:36:28.511Z,9.50
2022-11-20T13:38:57.395Z,9.50
2022-11-20T13:41:36.159Z,9.60
2022-11-20T13:44:24.642Z,9.60
2022-11-20T13:46:51.858Z,9.60
2022-11-20T13:49:41.145Z,9.60
2022-11-20T13:52:44.056Z,9.60
2022-11-20T13:55:47.857Z,9.60
2022-11-20T13:58:55.980Z,9.80
2022-11-20T14:01:27.262Z,9.60
2022-11-20T14:04:09.875Z,10.50
2022-11-20T14:06:46.373Z,9.60
2022-11-20T14:09:33.122Z,9.60
2022-11-20T14:12:00.315Z,9.60
2022-11-20T14:14:34.069Z,9.60
2022-11-20T14:17:39.061Z,11.10
2022-11-20T14:20:15.817Z,9.50
2022-11-20T14:22:54.198Z,9.50
2022-11-20T14:25:28.064Z,9.50
2022-11-20T14:28:01.717Z,11.30
2022-11-20T14:30:48.381Z,9.40
2022-11-20T14:33:16.933Z,9.40
2022-11-20T14:35:50.991Z,11.40
2022-11-20T14:38:23.186Z,9.30
2022-11-20T14:40:50.437Z,9.20
2022-11-20T14:43:27.931Z,9.20
2022-11-20T14:46:05.983Z,10.00
2022-11-20T14:48:49.032Z,9.10
2022-11-20T14:51:39.227Z,11.00
2022-11-20T14:54:26.969Z,9.00
2022-11-20T14:57:02.651Z,9.00
2022-11-20T14:59:35.391Z,9.00
2022-11-20T15:02:09.520Z,8.90
2022-11-20T15:04:51.659Z,8.90
2022-11-20T15:07:27.971Z,8.80
2022-11-20T15:10:23.162Z,8.80
2022-11-20T15:13:13.050Z,8.80
2022-11-20T15:15:56.177Z,8.80
2022-11-20T15:18:32.014Z,8.80
2022-11-20T15:21:04.204Z,8.80
2022-11-20T15:23:31.206Z,8.80
2022-11-20T15:25:58.709Z,8.80
2022-11-20T15:28:44.135Z,8.80
2022-11-20T15:31:15.126Z,8.80
2022-11-20T15:33:43.436Z,8.80
2022-11-20T15:36:10.849Z,8.80
2022-11-20T15:38:38.166Z,8.80
2022-11-20T15:41:05.821Z,8.80
2022-11-20T15:43:32.622Z,8.80
2022-11-20T15:46:17.041Z,8.80
2022-11-20T15:48:49.639Z,8.90
2022-11-20T15:51:31.444Z,8.90
2022-11-20T15:53:59.353Z,8.90
2022-11-20T15:56:26.880Z,8.90
2022-11-20T15:58:54.084Z,8.90
2022-11-20T16:01:23.509Z,8.90
2022-11-20T16:03:50.565Z,9.00
2022-11-20T16:06:17.620Z,9.00
2022-11-20T16:08:44.867Z,9.00
2022-11-20T16:11:18.250Z,9.00
2022-11-20T16:14:04.687Z,9.00
2022-11-20T16:16:37.382Z,9.00
2022-11-20T16:19:04.912Z,9.10
2022-11-20T16:21:32.624Z,9.10
2022-11-20T16:24:06.669Z,9.20
2022-11-20T16:26:34.505Z,9.20
2022-11-20T16:29:03.707Z,9.30
2022-11-20T16:31:30.967Z,9.30
2022-11-20T16:34:10.049Z,9.30
2022-11-20T16:36:42.296Z,9.30
2022-11-20T16:39:10.122Z,9.40
2022-11-20T16:41:37.271Z,9.50
2022-11-20T16:44:10.595Z,9.50
2022-11-20T16:46:39.015Z,9.50
2022-11-20T16:49:11.743Z,9.50
2022-11-20T16:51:38.838Z,10.50
2022-11-20T16:54:08.219Z,9.50
2022-11-20T16:56:35.426Z,9.50
2022-11-20T16:59:02.795Z,9.50
2022-11-20T17:01:31.377Z,9.50
2022-11-20T17:04:01.351Z,11.00
2022-11-20T17:06:32.440Z,9.60
2022-11-20T17:08:59.573Z,9.60
2022-11-20T17:11:27.725Z,9.60
2022-11-20T17:14:03.488Z,9.60
2022-11-20T17:16:31.466Z,9.60
2022-11-20T17:19:03.279Z,9.70
2022-11-20T17:21:32.903Z,10.60
2022-11-20T17:24:09.955Z,9.70
2022-11-20T17:26:39.647Z,9.70
2022-11-20T17:29:13.671Z,9.70
2022-11-20T17:31:41.492Z,11.60
2022-11-20T17:34:12.321Z,9.70
2022-11-20T17:36:45.541Z,9.70
2022-11-20T17:39:15.623Z,9.80
2022-11-20T17:41:42.677Z,9.80
2022-11-20T17:44:11.794Z,9.80
2022-11-20T17:46:38.667Z,9.90
2022-11-20T17:49:06.009Z,9.90
2022-11-20T17:51:35.092Z,10.00
2022-11-20T17:54:07.315Z,10.00
2022-11-20T17:56:54.148Z,10.10
2022-11-20T17:59:21.447Z,12.00
2022-11-20T18:01:48.412Z,10.20
2022-11-20T18:04:16.805Z,10.20
2022-11-20T18:06:44.172Z,10.30
2022-11-20T18:09:11.546Z,10.30
2022-11-20T18:11:41.537Z,10.30
2022-11-20T18:14:28.962Z,10.40
2022-11-20T18:17:02.952Z,10.70
2022-11-20T18:19:41.260Z,10.40
2022-11-20T18:22:18.614Z,10.40
2022-11-20T18:24:46.172Z,10.40
2022-11-20T18:27:19.811Z,10.40
2022-11-20T18:29:51.561Z,10.40
2022-11-20T18:32:21.472Z,10.40
2022-11-20T18:34:49.878Z,10.40
2022-11-20T18:37:17.413Z,10.40
2022-11-20T18:39:44.409Z,10.40
2022-11-20T18:42:32.927Z,10.40
2022-11-20T18:45:01.307Z,10.40
2022-11-20T18:47:37.182Z,10.40
2022-11-20T18:50:07.774Z,10.30
2022-11-20T18:52:41.629Z,10.30
2022-11-20T18:55:10.055Z,10.30
2022-11-20T18:57:36.903Z,10.30
2022-11-20T19:00:09.434Z,10.30
2022-11-20T19:02:42.989Z,10.30
2022-11-20T19:05:12.458Z,10.30
2022-11-20T19:07:39.654Z,12.20
2022-11-20T19:10:07.777Z,10.20
2022-11-20T19:12:34.650Z,10.20
2022-11-20T19:15:01.613Z,10.20
2022-11-20T19:17:28.548Z,10.20
2022-11-20T19:19:55.605Z,10.20
2022-11-20T19:22:22.669Z,10.20
2022-11-20T19:24:49.713Z,10.20
2022-11-20T19:27:16.703Z,10.20
2022-11-20T19:29:43.527Z,10.20
2022-11-20T19:32:10.359Z,10.20
2022-11-20T19:34:37.162Z,10.20
2022-11-20T19:37:05.117Z,10.20
2022-11-20T19:39:31.918Z,11.20
2022-11-20T19:41:58.709Z,10.20
2022-11-20T19:44:25.676Z,10.20
2022-11-20T19:46:52.583Z,10.20
2022-11-20T19:49:19.413Z,10.20
2022-11-20T19:51:49.194Z,10.10
2022-11-20T19:54:17.354Z,10.10
2022-11-20T19:56:45.411Z,10.10
2022-11-20T19:59:13.015Z,10.10
2022-11-20T20:01:40.202Z,10.10
2022-11-20T20:04:07.132Z,10.80
2022-11-20T20:06:41.580Z,10.10
2022-11-20T20:09:12.583Z,10.10
2022-11-20T20:11:40.848Z,10.00
2022-11-20T20:14:14.494Z,10.00
2022-11-20T20:16:42.786Z,10.00
2022-11-20T20:19:14.561Z,10.00
2022-11-20T20:21:41.789Z,10.00
2022-11-20T20:24:12.127Z,9.90
2022-11-20T20:26:39.533Z,10.00
2022-11-20T20:29:06.373Z,9.90
2022-11-20T20:31:34.673Z,9.90
2022-11-20T20:34:03.357Z,9.90
2022-11-20T20:36:30.346Z,9.80
2022-11-20T20:39:04.828Z,11.00
2022-11-20T20:41:31.896Z,9.80
2022-11-20T20:44:17.308Z,9.80
2022-11-20T20:46:44.243Z,9.90
2022-11-20T20:49:11.238Z,9.90
2022-11-20T20:51:38.552Z,9.80
2022-11-20T20:54:05.738Z,11.90
2022-11-20T20:56:32.766Z,9.80
2022-11-20T20:58:59.611Z,9.80
2022-11-20T21:01:28.827Z,11.10
2022-11-20T21:03:57.374Z,9.90
2022-11-20T21:06:25.018Z,10.90
2022-11-20T21:08:52.363Z,9.90
2022-11-20T21:11:20.716Z,9.80
2022-11-20T21:13:49.475Z,9.80
2022-11-20T21:16:20.625Z,9.80
2022-11-20T21:18:47.623Z,9.80
2022-11-20T21:21:35.252Z,9.80
2022-11-20T21:24:03.375Z,9.80
2022-11-20T21:26:30.200Z,9.80
2022-11-20T21:28:57.948Z,9.80
2022-11-20T21:31:27.192Z,10.40
2022-11-20T21:33:56.824Z,9.70
2022-11-20T21:36:27.987Z,9.70
2022-11-20T21:38:56.542Z,9.70
2022-11-20T21:41:26.569Z,9.70
2022-11-20T21:44:16.283Z,9.70
2022-11-20T21:46:45.542Z,11.00
2022-11-20T21:49:14.444Z,9.60
2022-11-20T21:51:41.717Z,11.00
2022-11-20T21:54:10.976Z,9.60
2022-11-20T21:56:38.437Z,9.60
2022-11-20T21:59:05.310Z,9.50
2022-11-20T22:01:32.283Z,9.60
2022-11-20T22:04:02.407Z,9.50
2022-11-20T22:06:34.788Z,11.10
2022-11-20T22:09:03.537Z,9.50
2022-11-20T22:11:30.657Z,9.50
2022-11-20T22:14:36.352Z,9.50
2022-11-20T22:17:03.189Z,9.50
2022-11-20T22:19:30.013Z,11.50
2022-11-20T22:21:59.576Z,9.50
2022-11-20T22:24:26.672Z,9.50
2022-11-20T22:26:53.773Z,8.60
2022-11-20T22:29:21.506Z,9.40
2022-11-20T22:31:51.508Z,9.70
2022-11-20T22:34:18.344Z,9.40
2022-11-20T22:36:45.645Z,9.40
2022-11-20T22:39:12.519Z,9.40
2022-11-20T22:41:39.332Z,9.40
2022-11-20T22:44:08.134Z,9.50
2022-11-20T22:46:37.710Z,9.40
2022-11-20T22:49:10.657Z,9.40
2022-11-20T22:51:41.000Z,9.40
2022-11-20T22:54:11.247Z,9.40
2022-11-20T22:56:38.177Z,9.40
2022-11-20T22:59:05.337Z,9.40
2022-11-20T23:01:38.314Z,11.00
2022-11-20T23:04:10.654Z,9.30
2022-11-20T23:06:38.137Z,9.30
2022-11-20T23:09:07.092Z,9.20
2022-11-20T23:11:35.267Z,9.20
2022-11-20T23:14:14.562Z,9.20
2022-11-20T23:16:42.118Z,9.10
2022-11-20T23:19:12.821Z,9.10
2022-11-20T23:21:42.098Z,9.10
2022-11-20T23:24:10.457Z,9.10
2022-11-20T23:26:40.537Z,10.70
2022-11-20T23:29:08.178Z,9.10
2022-11-20T23:31:36.083Z,9.00
2022-11-20T23:34:04.397Z,9.10
2022-11-20T23:36:34.181Z,9.10
2022-11-20T23:39:01.127Z,10.10
2022-11-20T23:41:28.013Z,9.10
2022-11-20T23:43:56.428Z,11.10
2022-11-20T23:46:23.304Z,8.80
2022-11-20T23:48:51.222Z,9.10
2022-11-20T23:51:18.423Z,9.10
2022-11-20T23:53:45.719Z,9.00
2022-11-20T23:56:14.820Z,9.00
2022-11-20T23:58:42.403Z,9.00
